Time,TemperatureF,DewpointF,PressureIn,WindDirection,WindDirectionDegrees,WindSpeedMPH,WindSpeedGustMPH,Humidity,HourlyPrecipIn,Conditions,Clouds,dailyrainin,SoftwareType,DateUTC
2013-02-12 00:00:00,61.5,57.9,30.15,SSW,202,5.8,5.8,88,0.01,OVC,,0.12,WeatherDisplay:10.37,2013-02-12 05:00:00,
2013-02-12 00:05:00,61.5,57.6,30.15,SSW,202,6.9,6.9,87,0.01,-RA,,0.00,WeatherDisplay:10.37,2013-02-12 05:05:00,
2013-02-12 00:10:00,61.5,57.6,30.15,SW,225,6.9,6.9,87,0.01,-RA,,0.00,WeatherDisplay:10.37,2013-02-12 05:10:00,
2013-02-12 00:15:00,61.3,57.4,30.15,SW,225,6.9,6.9,87,0.01,OVC,,0.00,WeatherDisplay:10.37,2013-02-12 05:15:00,
2013-02-12 00:20:00,61.2,57.3,30.15,WSW,248,6.9,6.9,87,0.01,OVC,,0.00,WeatherDisplay:10.37,2013-02-12 05:20:00,
2013-02-12 00:25:00,61.2,57.3,30.14,SSE,158,4.6,4.6,87,0.01,OVC,,0.00,WeatherDisplay:10.37,2013-02-12 05:25:00,
2013-02-12 00:30:00,61.2,57.3,30.14,WSW,248,4.6,4.6,87,0.01,OVC,,0.00,WeatherDisplay:10.37,2013-02-12 05:30:00,
2013-02-12 00:35:00,61.2,57.3,30.14,SSW,202,5.6,5.6,87,0.01,OVC,,0.00,WeatherDisplay:10.37,2013-02-12 05:35:00,
2013-02-12 00:40:00,61.0,57.1,30.15,SSW,202,6.9,6.9,87,0.00,OVC,,0.00,WeatherDisplay:10.37,2013-02-12 05:40:00,
2013-02-12 00:45:00,60.8,56.9,30.15,NW,315,6.0,6.0,87,0.00,OVC,,0.00,WeatherDisplay:10.37,2013-02-12 05:45:00,
2013-02-12 00:50:00,60.8,56.9,30.15,SW,225,4.6,4.6,87,0.00,OVC,,0.00,WeatherDisplay:10.37,2013-02-12 05:50:00,
2013-02-12 00:55:00,60.8,56.9,30.15,SSW,202,4.6,4.6,87,0.00,OVC,,0.00,WeatherDisplay:10.37,2013-02-12 05:55:00,
2013-02-12 01:00:00,60.8,56.9,30.15,SW,225,5.4,5.4,87,0.00,OVC,,0.00,WeatherDisplay:10.37,2013-02-12 06:00:00,
2013-02-12 01:05:00,60.8,56.9,30.15,SSE,158,5.8,5.8,87,0.00,SCT,,0.00,WeatherDisplay:10.37,2013-02-12 06:05:00,
2013-02-12 01:10:00,60.6,57.0,30.16,WSW,248,5.8,5.8,88,0.00,SCT,,0.00,WeatherDisplay:10.37,2013-02-12 06:10:00,
2013-02-12 01:15:00,60.6,57.0,30.15,SSW,202,8.1,8.1,88,0.00,SCT,,0.00,WeatherDisplay:10.37,2013-02-12 06:15:00,
2013-02-12 01:20:00,60.6,57.0,30.15,West,270,4.6,4.6,88,0.00,SCT,,0.00,WeatherDisplay:10.37,2013-02-12 06:20:00,
2013-02-12 01:25:00,60.4,56.9,30.15,South,180,4.7,4.7,88,0.00,SCT,,0.00,WeatherDisplay:10.37,2013-02-12 06:25:00,
2013-02-12 01:30:00,60.4,56.9,30.15,SW,225,4.6,4.6,88,0.00,SCT,,0.00,WeatherDisplay:10.37,2013-02-12 06:30:00,
2013-02-12 01:35:00,60.4,56.9,30.15,WSW,248,5.8,5.8,88,0.01,RA,,0.01,WeatherDisplay:10.37,2013-02-12 06:35:00,
2013-02-12 01:40:00,60.3,56.7,30.15,SW,225,4.6,4.6,88,0.02,RA,,0.03,WeatherDisplay:10.37,2013-02-12 06:40:00,
2013-02-12 01:45:00,60.3,56.7,30.14,SW,225,4.6,4.6,88,0.03,-RA,,0.03,WeatherDisplay:10.37,2013-02-12 06:45:00,
2013-02-12 01:50:00,60.1,56.8,30.14,SSW,202,3.5,3.5,89,0.04,-RA,,0.04,WeatherDisplay:10.37,2013-02-12 06:50:00,
2013-02-12 01:55:00,60.1,56.8,30.13,WSW,248,5.6,5.6,89,0.05,-RA,,0.06,WeatherDisplay:10.37,2013-02-12 06:55:00,
2013-02-12 02:00:00,60.1,56.8,30.14,SW,225,4.6,4.6,89,0.07,-RA,,0.08,WeatherDisplay:10.37,2013-02-12 07:00:00,
2013-02-12 02:05:00,60.1,56.8,30.15,SW,225,4.7,4.7,89,0.09,-RA,,0.09,WeatherDisplay:10.37,2013-02-12 07:05:00,
2013-02-12 02:10:00,60.1,56.8,30.15,South,180,6.9,6.9,89,0.10,-RA,,0.10,WeatherDisplay:10.37,2013-02-12 07:10:00,
2013-02-12 02:15:00,60.1,56.8,30.16,SW,225,3.5,6.9,89,0.10,RA,,0.10,WeatherDisplay:10.37,2013-02-12 07:15:00,
2013-02-12 02:20:00,59.9,56.6,30.16,WSW,248,4.7,4.7,89,0.11,RA,,0.11,WeatherDisplay:10.37,2013-02-12 07:20:00,
2013-02-12 02:25:00,59.9,56.6,30.16,WSW,248,4.6,4.6,89,0.11,RA,,0.11,WeatherDisplay:10.37,2013-02-12 07:25:00,
2013-02-12 02:30:00,59.7,56.5,30.16,WSW,248,4.7,4.7,89,0.11,OVC,,0.11,WeatherDisplay:10.37,2013-02-12 07:30:00,
2013-02-12 02:35:00,59.7,56.5,30.16,WSW,248,4.7,4.7,89,0.10,OVC,,0.11,WeatherDisplay:10.37,2013-02-12 07:35:00,
2013-02-12 02:40:00,59.7,56.5,30.16,WSW,248,6.9,6.9,89,0.08,OVC,,0.11,WeatherDisplay:10.37,2013-02-12 07:40:00,
2013-02-12 02:45:00,59.7,56.8,30.16,SW,225,7.1,7.1,90,0.08,OVC,,0.11,WeatherDisplay:10.37,2013-02-12 07:45:00,
2013-02-12 02:50:00,59.7,56.8,30.16,WSW,248,6.9,6.9,90,0.07,OVC,,0.11,WeatherDisplay:10.37,2013-02-12 07:50:00,
2013-02-12 02:55:00,59.5,56.6,30.16,West,270,4.6,4.6,90,0.05,OVC,,0.11,WeatherDisplay:10.37,2013-02-12 07:55:00,
2013-02-12 03:00:00,59.5,56.6,30.15,SW,225,5.8,5.8,90,0.03,OVC,,0.11,WeatherDisplay:10.37,2013-02-12 08:00:00,
2013-02-12 03:05:00,59.5,56.6,30.15,WSW,248,4.6,4.7,90,0.02,-RA,,0.11,WeatherDisplay:10.37,2013-02-12 08:05:00,
2013-02-12 03:10:00,59.5,56.6,30.15,SW,225,5.8,5.8,90,0.01,-RA,,0.12,WeatherDisplay:10.37,2013-02-12 08:10:00,
2013-02-12 03:15:00,59.5,56.6,30.15,SW,225,8.1,8.1,90,0.02,-RA,,0.12,WeatherDisplay:10.37,2013-02-12 08:15:00,
2013-02-12 03:20:00,59.4,56.4,30.15,WSW,248,4.6,4.6,90,0.01,-RA,,0.12,WeatherDisplay:10.37,2013-02-12 08:20:00,
2013-02-12 03:25:00,59.5,56.6,30.14,West,270,4.6,4.6,90,0.01,-RA,,0.12,WeatherDisplay:10.37,2013-02-12 08:25:00,
2013-02-12 03:30:00,59.5,56.6,30.13,WSW,248,9.2,9.2,90,0.01,-RA,,0.12,WeatherDisplay:10.37,2013-02-12 08:30:00,
2013-02-12 03:35:00,59.4,56.4,30.14,WSW,248,4.6,4.6,90,0.01,-RA,,0.12,WeatherDisplay:10.37,2013-02-12 08:35:00,
2013-02-12 03:40:00,59.4,56.4,30.13,West,270,4.6,4.6,90,0.01,-RA,,0.12,WeatherDisplay:10.37,2013-02-12 08:40:00,
2013-02-12 03:45:00,59.4,56.4,30.13,SW,225,5.9,5.9,90,0.01,-RA,,0.12,WeatherDisplay:10.37,2013-02-12 08:45:00,
2013-02-12 03:50:00,59.4,56.4,30.13,WSW,248,2.3,2.3,90,0.01,-RA,,0.12,WeatherDisplay:10.37,2013-02-12 08:50:00,
2013-02-12 03:55:00,59.4,56.4,30.13,SW,225,3.5,3.5,90,0.01,-RA,,0.12,WeatherDisplay:10.37,2013-02-12 08:55:00,
2013-02-12 04:00:00,59.4,56.4,30.12,WNW,292,3.8,3.8,90,0.01,-RA,,0.12,WeatherDisplay:10.37,2013-02-12 09:00:00,
2013-02-12 04:05:00,59.4,56.4,30.12,South,180,2.3,2.3,90,0.01,-RA,,0.12,WeatherDisplay:10.37,2013-02-12 09:05:00,
2013-02-12 04:10:00,59.4,56.4,30.11,SW,225,2.9,2.9,90,0.00,-RA,,0.12,WeatherDisplay:10.37,2013-02-12 09:10:00,
2013-02-12 04:15:00,59.4,56.4,30.12,West,270,6.0,6.0,90,0.00,BKN,,0.12,WeatherDisplay:10.37,2013-02-12 09:15:00,
2013-02-12 04:20:00,59.2,55.9,30.12,SSW,202,5.8,5.8,89,0.00,BKN,,0.12,WeatherDisplay:10.37,2013-02-12 09:20:00,
2013-02-12 04:25:00,59.2,55.9,30.13,WSW,248,3.5,3.5,89,0.00,BKN,,0.12,WeatherDisplay:10.37,2013-02-12 09:25:00,
2013-02-12 04:30:00,59.0,55.8,30.13,WSW,248,4.3,4.3,89,0.00,BKN,,0.12,WeatherDisplay:10.37,2013-02-12 09:30:00,
2013-02-12 04:35:00,59.0,55.8,30.13,West,270,4.0,4.0,89,0.00,BKN,,0.12,WeatherDisplay:10.37,2013-02-12 09:35:00,
2013-02-12 04:40:00,58.8,55.6,30.13,SW,225,3.5,3.5,89,0.00,BKN,,0.12,WeatherDisplay:10.37,2013-02-12 09:40:00,
2013-02-12 04:45:00,58.8,55.6,30.13,WSW,248,3.5,3.5,89,0.00,BKN,,0.12,WeatherDisplay:10.37,2013-02-12 09:45:00,
2013-02-12 04:50:00,58.6,55.4,30.13,SW,225,3.5,3.5,89,0.00,BKN,,0.12,WeatherDisplay:10.37,2013-02-12 09:50:00,
2013-02-12 04:55:00,58.6,55.4,30.13,SW,225,3.5,3.5,89,0.00,BKN,,0.12,WeatherDisplay:10.37,2013-02-12 09:55:00,
2013-02-12 05:00:00,58.5,55.2,30.13,WSW,248,4.0,4.0,89,0.00,BKN,,0.12,WeatherDisplay:10.37,2013-02-12 10:00:00,
2013-02-12 05:05:00,58.5,55.2,30.14,WSW,248,5.9,5.9,89,0.00,BKN,,0.12,WeatherDisplay:10.37,2013-02-12 10:05:00,
2013-02-12 05:10:00,58.5,55.2,30.15,SW,225,3.5,3.5,89,0.00,BKN,,0.12,WeatherDisplay:10.37,2013-02-12 10:10:00,
2013-02-12 05:15:00,58.3,55.1,30.15,WSW,248,4.7,4.7,89,0.00,CLR,,0.12,WeatherDisplay:10.37,2013-02-12 10:15:00,
2013-02-12 05:20:00,58.1,54.6,30.15,WSW,248,5.4,5.4,88,0.00,CLR,,0.12,WeatherDisplay:10.37,2013-02-12 10:20:00,
2013-02-12 05:25:00,57.9,54.4,30.15,WNW,292,2.3,2.3,88,0.00,CLR,,0.12,WeatherDisplay:10.37,2013-02-12 10:25:00,
2013-02-12 05:30:00,57.9,54.4,30.16,West,270,4.6,4.6,88,0.00,CLR,,0.12,WeatherDisplay:10.37,2013-02-12 10:30:00,
2013-02-12 05:35:00,57.9,54.4,30.16,WSW,248,3.5,3.5,88,0.00,CLR,,0.12,WeatherDisplay:10.37,2013-02-12 10:35:00,
2013-02-12 05:41:00,57.7,54.2,30.16,WSW,248,4.6,4.6,88,0.00,CLR,,0.12,WeatherDisplay:10.37,2013-02-12 10:41:00,
2013-02-12 05:46:00,57.6,54.0,30.15,SW,225,3.6,3.6,88,0.00,CLR,,0.12,WeatherDisplay:10.37,2013-02-12 10:46:00,
2013-02-12 05:51:00,57.6,54.0,30.16,WSW,248,2.6,2.6,88,0.00,CLR,,0.12,WeatherDisplay:10.37,2013-02-12 10:51:00,
2013-02-12 05:56:00,57.6,54.0,30.16,SW,225,4.7,4.7,88,0.00,CLR,,0.12,WeatherDisplay:10.37,2013-02-12 10:56:00,
2013-02-12 06:01:00,57.6,54.0,30.15,WSW,248,2.3,3.8,88,0.00,CLR,,0.12,WeatherDisplay:10.37,2013-02-12 11:01:00,
2013-02-12 06:06:00,57.4,53.9,30.16,West,270,2.3,2.3,88,0.00,CLR,,0.12,WeatherDisplay:10.37,2013-02-12 11:06:00,
2013-02-12 06:11:00,57.4,53.9,30.16,WSW,248,4.7,4.7,88,0.00,CLR,,0.12,WeatherDisplay:10.37,2013-02-12 11:11:00,
2013-02-12 06:16:00,57.4,53.9,30.16,WNW,292,5.9,5.9,88,0.00,FEW,,0.12,WeatherDisplay:10.37,2013-02-12 11:16:00,
2013-02-12 06:21:00,57.4,53.9,30.16,SSW,202,6.2,6.2,88,0.00,FEW,,0.12,WeatherDisplay:10.37,2013-02-12 11:21:00,
2013-02-12 06:26:00,57.2,53.7,30.16,West,270,4.6,4.6,88,0.00,FEW,,0.12,WeatherDisplay:10.37,2013-02-12 11:26:00,
2013-02-12 06:31:00,57.2,53.7,30.16,SW,225,3.5,3.5,88,0.00,FEW,,0.12,WeatherDisplay:10.37,2013-02-12 11:31:00,
2013-02-12 06:36:00,57.2,53.7,30.16,WSW,248,2.3,3.1,88,0.00,FEW,,0.12,WeatherDisplay:10.37,2013-02-12 11:36:00,
2013-02-12 06:41:00,57.2,53.7,30.17,SW,225,4.6,4.6,88,0.00,FEW,,0.12,WeatherDisplay:10.37,2013-02-12 11:41:00,
2013-02-12 06:46:00,57.2,53.7,30.18,WNW,292,4.6,4.6,88,0.00,FEW,,0.12,WeatherDisplay:10.37,2013-02-12 11:46:00,
2013-02-12 06:51:00,57.2,53.7,30.17,SW,225,2.3,2.3,88,0.00,FEW,,0.12,WeatherDisplay:10.37,2013-02-12 11:51:00,
2013-02-12 06:56:00,57.2,53.7,30.17,WSW,248,1.1,3.3,88,0.00,FEW,,0.12,WeatherDisplay:10.37,2013-02-12 11:56:00,
2013-02-12 07:01:00,57.0,53.5,30.18,WSW,248,2.3,2.3,88,0.00,FEW,,0.12,WeatherDisplay:10.37,2013-02-12 12:01:00,
2013-02-12 07:06:00,57.0,53.5,30.18,WSW,248,3.5,3.5,88,0.00,FEW,,0.12,WeatherDisplay:10.37,2013-02-12 12:06:00,
2013-02-12 07:11:00,57.0,53.5,30.18,West,270,3.5,3.5,88,0.00,FEW,,0.12,WeatherDisplay:10.37,2013-02-12 12:11:00,
2013-02-12 07:16:00,57.0,53.5,30.18,NW,315,2.3,2.3,88,0.00,FEW,,0.12,WeatherDisplay:10.37,2013-02-12 12:16:00,
2013-02-12 07:21:00,56.8,53.3,30.18,SSW,202,2.3,2.3,88,0.00,FEW,,0.12,WeatherDisplay:10.37,2013-02-12 12:21:00,
2013-02-12 07:26:00,56.8,53.3,30.18,WSW,248,2.9,2.9,88,0.00,FEW,,0.12,WeatherDisplay:10.37,2013-02-12 12:26:00,
2013-02-12 07:31:00,56.8,53.3,30.18,WSW,248,3.5,3.5,88,0.00,FEW,,0.12,WeatherDisplay:10.37,2013-02-12 12:31:00,
2013-02-12 07:36:00,57.0,53.5,30.18,West,270,2.6,2.6,88,0.00,FEW,,0.12,WeatherDisplay:10.37,2013-02-12 12:36:00,
2013-02-12 07:41:00,57.0,53.5,30.18,WSW,248,5.8,5.8,88,0.00,FEW,,0.12,WeatherDisplay:10.37,2013-02-12 12:41:00,
2013-02-12 07:46:00,57.0,53.5,30.18,West,270,2.3,2.3,88,0.00,FEW,,0.12,WeatherDisplay:10.37,2013-02-12 12:46:00,
2013-02-12 07:51:00,57.2,53.7,30.18,West,270,3.5,3.5,88,0.00,FEW,,0.12,WeatherDisplay:10.37,2013-02-12 12:51:00,
2013-02-12 07:56:00,57.2,53.7,30.19,West,270,2.3,2.3,88,0.00,FEW,,0.12,WeatherDisplay:10.37,2013-02-12 12:56:00,
2013-02-12 08:01:00,57.2,53.7,30.19,WNW,292,3.5,3.5,88,0.00,FEW,,0.12,WeatherDisplay:10.37,2013-02-12 13:01:00,
2013-02-12 08:06:00,57.4,53.9,30.19,SW,225,3.5,3.5,88,0.00,FEW,,0.12,WeatherDisplay:10.37,2013-02-12 13:06:00,
2013-02-12 08:11:00,57.4,53.9,30.20,SW,225,3.5,3.5,88,0.00,BKN,,0.12,WeatherDisplay:10.37,2013-02-12 13:11:00,
2013-02-12 08:16:00,57.6,54.0,30.20,WSW,248,4.6,4.6,88,0.00,BKN,,0.12,WeatherDisplay:10.37,2013-02-12 13:16:00,
2013-02-12 08:21:00,57.6,54.0,30.20,WSW,248,3.5,3.5,88,0.00,BKN,,0.12,WeatherDisplay:10.37,2013-02-12 13:21:00,
2013-02-12 08:26:00,57.6,54.0,30.20,SW,225,4.6,4.6,88,0.00,BKN,,0.12,WeatherDisplay:10.37,2013-02-12 13:26:00,
2013-02-12 08:31:00,57.7,53.9,30.21,WSW,248,3.5,3.5,87,0.00,BKN,,0.12,WeatherDisplay:10.37,2013-02-12 13:31:00,
2013-02-12 08:36:00,57.7,53.9,30.20,NNW,338,4.6,4.6,87,0.00,BKN,,0.12,WeatherDisplay:10.37,2013-02-12 13:36:00,
2013-02-12 08:41:00,57.7,54.2,30.20,West,270,4.6,4.6,88,0.00,BKN,,0.12,WeatherDisplay:10.37,2013-02-12 13:41:00,
2013-02-12 08:46:00,57.7,53.9,30.19,NW,315,4.6,4.6,87,0.00,BKN,,0.12,WeatherDisplay:10.37,2013-02-12 13:46:00,
2013-02-12 08:51:00,57.7,53.9,30.20,West,270,4.7,4.7,87,0.00,BKN,,0.12,WeatherDisplay:10.37,2013-02-12 13:51:00,
2013-02-12 08:56:00,57.7,53.9,30.20,WSW,248,4.6,4.6,87,0.00,BKN,,0.12,WeatherDisplay:10.37,2013-02-12 13:56:00,
2013-02-12 09:01:00,57.7,53.9,30.20,WNW,292,4.6,4.7,87,0.00,BKN,,0.12,WeatherDisplay:10.37,2013-02-12 14:01:00,
2013-02-12 09:06:00,57.7,53.9,30.20,NW,315,4.6,4.6,87,0.00,BKN,,0.12,WeatherDisplay:10.37,2013-02-12 14:06:00,
2013-02-12 09:11:00,57.9,54.1,30.20,NW,315,5.8,5.8,87,0.00,BKN,,0.12,WeatherDisplay:10.37,2013-02-12 14:11:00,
2013-02-12 09:16:00,57.9,54.1,30.20,WNW,292,5.8,5.8,87,0.00,OVC,,0.12,WeatherDisplay:10.37,2013-02-12 14:16:00,
2013-02-12 09:21:00,58.1,54.2,30.20,NNE,22,5.8,5.8,87,0.00,OVC,,0.12,WeatherDisplay:10.37,2013-02-12 14:21:00,
2013-02-12 09:26:00,58.1,53.9,30.20,SW,225,8.1,8.1,86,0.00,OVC,,0.12,WeatherDisplay:10.37,2013-02-12 14:26:00,
2013-02-12 09:31:00,58.3,54.1,30.21,NNW,338,4.7,4.7,86,0.00,OVC,,0.12,WeatherDisplay:10.37,2013-02-12 14:31:00,
2013-02-12 09:36:00,58.3,54.1,30.21,NW,315,4.6,4.6,86,0.00,OVC,,0.12,WeatherDisplay:10.37,2013-02-12 14:36:00,
2013-02-12 09:41:00,58.5,54.0,30.21,WNW,292,5.2,5.2,85,0.00,OVC,,0.12,WeatherDisplay:10.37,2013-02-12 14:41:00,
2013-02-12 09:46:00,58.6,53.8,30.21,NNE,22,5.8,5.8,84,0.00,OVC,,0.12,WeatherDisplay:10.37,2013-02-12 14:46:00,
2013-02-12 09:51:00,58.6,53.8,30.21,NNW,338,5.8,5.8,84,0.00,OVC,,0.12,WeatherDisplay:10.37,2013-02-12 14:51:00,
2013-02-12 09:56:00,58.6,53.5,30.21,NW,315,4.6,4.6,83,0.00,OVC,,0.12,WeatherDisplay:10.37,2013-02-12 14:56:00,
2013-02-12 10:01:00,58.8,53.7,30.22,SW,225,4.0,4.0,83,0.00,OVC,,0.12,WeatherDisplay:10.37,2013-02-12 15:01:00,
2013-02-12 10:06:00,59.0,53.8,30.22,WNW,292,3.5,3.5,83,0.00,OVC,,0.12,WeatherDisplay:10.37,2013-02-12 15:06:00,
2013-02-12 10:11:00,59.2,53.7,30.22,NW,315,5.8,5.8,82,0.00,OVC,,0.12,WeatherDisplay:10.37,2013-02-12 15:11:00,
2013-02-12 10:16:00,59.4,53.2,30.22,NNW,338,3.6,3.6,80,0.00,OVC,,0.12,WeatherDisplay:10.37,2013-02-12 15:16:00,
2013-02-12 10:21:00,59.4,53.2,30.22,NNW,338,5.8,5.8,80,0.00,OVC,,0.12,WeatherDisplay:10.37,2013-02-12 15:21:00,
2013-02-12 10:26:00,59.5,53.0,30.22,North,0,4.9,4.9,79,0.00,OVC,,0.12,WeatherDisplay:10.37,2013-02-12 15:26:00,
2013-02-12 10:31:00,59.5,52.0,30.22,NW,315,5.8,5.8,76,0.00,OVC,,0.12,WeatherDisplay:10.37,2013-02-12 15:31:00,
2013-02-12 10:36:00,59.4,50.3,30.22,NW,315,6.9,6.9,72,0.00,OVC,,0.12,WeatherDisplay:10.37,2013-02-12 15:36:00,
2013-02-12 10:41:00,59.2,51.3,30.21,West,270,4.6,4.6,75,0.00,OVC,,0.12,WeatherDisplay:10.37,2013-02-12 15:41:00,
2013-02-12 10:46:00,59.2,51.3,30.22,West,270,3.5,3.5,75,0.00,OVC,,0.12,WeatherDisplay:10.37,2013-02-12 15:46:00,
2013-02-12 10:51:00,59.2,51.3,30.22,North,0,6.9,6.9,75,0.00,OVC,,0.12,WeatherDisplay:10.37,2013-02-12 15:51:00,
2013-02-12 10:56:00,59.2,50.9,30.23,NW,315,5.2,5.2,74,0.00,OVC,,0.12,WeatherDisplay:10.37,2013-02-12 15:56:00,
2013-02-12 11:01:00,59.2,50.9,30.24,North,0,3.5,3.5,74,0.00,OVC,,0.12,WeatherDisplay:10.37,2013-02-12 16:01:00,
2013-02-12 11:06:00,59.2,51.3,30.24,WNW,292,5.8,5.8,75,0.00,OVC,,0.12,WeatherDisplay:10.37,2013-02-12 16:06:00,
2013-02-12 11:11:00,59.2,50.9,30.24,NNW,338,5.8,5.8,74,0.00,SCT,,0.12,WeatherDisplay:10.37,2013-02-12 16:11:00,
2013-02-12 11:16:00,59.0,50.4,30.25,North,0,3.6,3.6,73,0.00,SCT,,0.12,WeatherDisplay:10.37,2013-02-12 16:16:00,
2013-02-12 11:21:00,59.0,49.6,30.24,NW,315,4.6,4.6,71,0.00,SCT,,0.12,WeatherDisplay:10.37,2013-02-12 16:21:00,
2013-02-12 11:26:00,58.6,49.6,30.25,NW,315,4.6,4.6,72,0.00,SCT,,0.12,WeatherDisplay:10.37,2013-02-12 16:26:00,
2013-02-12 11:31:00,58.6,49.6,30.24,NW,315,4.6,4.6,72,0.00,SCT,,0.12,WeatherDisplay:10.37,2013-02-12 16:31:00,
2013-02-12 11:36:00,58.6,49.3,30.24,NW,315,3.5,3.5,71,0.00,SCT,,0.12,WeatherDisplay:10.37,2013-02-12 16:36:00,
2013-02-12 11:41:00,58.6,49.6,30.24,North,0,2.4,2.4,72,0.00,SCT,,0.12,WeatherDisplay:10.37,2013-02-12 16:41:00,
2013-02-12 11:46:00,58.6,49.6,30.24,NNE,22,2.3,2.3,72,0.00,SCT,,0.12,WeatherDisplay:10.37,2013-02-12 16:46:00,
2013-02-12 11:51:00,58.6,49.6,30.24,NW,315,3.5,3.5,72,0.00,SCT,,0.12,WeatherDisplay:10.37,2013-02-12 16:51:00,
2013-02-12 11:56:00,58.8,49.8,30.24,NNW,338,2.3,2.3,72,0.00,SCT,,0.12,WeatherDisplay:10.37,2013-02-12 16:56:00,
2013-02-12 12:01:00,59.0,50.0,30.23,NNW,338,1.1,1.1,72,0.00,OVC,,0.12,WeatherDisplay:10.37,2013-02-12 17:01:00,
2013-02-12 12:06:00,59.4,50.0,30.22,North,0,4.6,4.6,71,0.00,OVC,,0.12,WeatherDisplay:10.37,2013-02-12 17:06:00,
2013-02-12 12:11:00,59.4,49.2,30.21,North,0,3.3,3.3,69,0.00,OVC,,0.12,WeatherDisplay:10.37,2013-02-12 17:11:00,
2013-02-12 12:16:00,59.7,49.9,30.21,North,0,2.3,2.3,70,0.00,OVC,,0.12,WeatherDisplay:10.37,2013-02-12 17:16:00,
2013-02-12 12:21:00,60.1,49.5,30.21,NNE,22,3.5,3.5,68,0.00,OVC,,0.12,WeatherDisplay:10.37,2013-02-12 17:21:00,
2013-02-12 12:26:00,60.3,49.3,30.21,North,0,3.5,3.5,67,0.00,OVC,,0.12,WeatherDisplay:10.37,2013-02-12 17:26:00,
2013-02-12 12:31:00,60.6,50.4,30.20,East,90,0.2,0.2,69,0.00,OVC,,0.12,WeatherDisplay:10.37,2013-02-12 17:31:00,
2013-02-12 12:36:00,61.0,49.5,30.20,NNE,22,4.6,4.6,66,0.00,OVC,,0.12,WeatherDisplay:10.37,2013-02-12 17:36:00,
2013-02-12 12:41:00,61.2,48.5,30.19,North,0,4.6,4.6,63,0.00,OVC,,0.12,WeatherDisplay:10.37,2013-02-12 17:41:00,
2013-02-12 12:46:00,61.2,47.2,30.18,North,0,2.4,2.4,60,0.00,OVC,,0.12,WeatherDisplay:10.37,2013-02-12 17:46:00,
2013-02-12 12:51:00,61.0,48.3,30.17,NNE,22,3.8,3.8,63,0.00,OVC,,0.12,WeatherDisplay:10.37,2013-02-12 17:51:00,
2013-02-12 12:56:00,61.2,48.5,30.17,NNW,338,3.5,3.5,63,0.00,OVC,,0.12,WeatherDisplay:10.37,2013-02-12 17:56:00,
2013-02-12 13:01:00,61.5,49.2,30.18,SW,225,3.5,3.5,64,0.00,OVC,,0.12,WeatherDisplay:10.37,2013-02-12 18:01:00,
2013-02-12 13:06:00,61.9,49.1,30.18,WNW,292,2.3,2.3,63,0.00,OVC,,0.12,WeatherDisplay:10.37,2013-02-12 18:06:00,
2013-02-12 13:11:00,62.2,48.6,30.18,SW,225,2.3,2.3,61,0.00,CLR,,0.12,WeatherDisplay:10.37,2013-02-12 18:11:00,
2013-02-12 13:16:00,62.6,48.1,30.17,ENE,68,4.6,4.6,59,0.00,CLR,,0.12,WeatherDisplay:10.37,2013-02-12 18:16:00,
2013-02-12 13:21:00,62.6,45.2,30.17,North,0,4.7,4.7,53,0.00,CLR,,0.12,WeatherDisplay:10.37,2013-02-12 18:21:00,
2013-02-12 13:26:00,62.6,45.7,30.17,North,0,6.2,6.2,54,0.00,CLR,,0.12,WeatherDisplay:10.37,2013-02-12 18:26:00,
2013-02-12 13:31:00,62.6,46.7,30.18,West,270,3.5,3.5,56,0.00,CLR,,0.12,WeatherDisplay:10.37,2013-02-12 18:31:00,
2013-02-12 13:37:00,62.8,47.3,30.18,West,270,3.6,3.6,57,0.00,CLR,,0.12,WeatherDisplay:10.37,2013-02-12 18:37:00,
2013-02-12 13:42:00,63.0,47.5,30.18,NNW,338,3.6,3.6,57,0.00,CLR,,0.12,WeatherDisplay:10.37,2013-02-12 18:42:00,
2013-02-12 13:47:00,63.5,48.0,30.18,South,180,2.9,2.9,57,0.00,CLR,,0.12,WeatherDisplay:10.37,2013-02-12 18:47:00,
2013-02-12 13:52:00,64.0,48.0,30.17,North,0,2.3,2.3,56,0.00,CLR,,0.12,WeatherDisplay:10.37,2013-02-12 18:52:00,
2013-02-12 13:57:00,64.4,47.9,30.16,SE,135,2.3,2.3,55,0.00,CLR,,0.12,WeatherDisplay:10.37,2013-02-12 18:57:00,
2013-02-12 14:02:00,64.6,47.1,30.16,North,0,3.5,3.5,53,0.00,CLR,,0.12,WeatherDisplay:10.37,2013-02-12 19:02:00,
2013-02-12 14:07:00,64.6,44.4,30.15,North,0,4.6,4.6,48,0.00,CLR,,0.12,WeatherDisplay:10.37,2013-02-12 19:07:00,
2013-02-12 14:12:00,64.8,46.7,30.15,SW,225,2.3,2.3,52,0.00,CLR,,0.12,WeatherDisplay:10.37,2013-02-12 19:12:00,
2013-02-12 14:17:00,64.9,46.9,30.15,SE,135,1.8,1.8,52,0.00,CLR,,0.12,WeatherDisplay:10.37,2013-02-12 19:17:00,
2013-02-12 14:22:00,65.3,47.7,30.15,SW,225,2.3,2.3,53,0.00,CLR,,0.12,WeatherDisplay:10.37,2013-02-12 19:22:00,
2013-02-12 14:27:00,65.7,47.5,30.15,SW,225,1.1,1.1,52,0.00,CLR,,0.12,WeatherDisplay:10.37,2013-02-12 19:27:00,
2013-02-12 14:32:00,66.0,47.4,30.15,SE,135,2.3,2.3,51,0.00,CLR,,0.12,WeatherDisplay:10.37,2013-02-12 19:32:00,
2013-02-12 14:37:00,66.2,47.5,30.14,SSE,158,1.1,1.1,51,0.00,CLR,,0.12,WeatherDisplay:10.37,2013-02-12 19:37:00,
2013-02-12 14:42:00,66.2,47.5,30.13,SE,135,2.3,2.3,51,0.00,CLR,,0.12,WeatherDisplay:10.37,2013-02-12 19:42:00,
2013-02-12 14:47:00,66.6,47.9,30.13,SE,135,2.3,2.3,51,0.00,CLR,,0.12,WeatherDisplay:10.37,2013-02-12 19:47:00,
2013-02-12 14:52:00,66.6,47.9,30.14,SSW,202,2.3,2.3,51,0.00,CLR,,0.12,WeatherDisplay:10.37,2013-02-12 19:52:00,
2013-02-12 14:57:00,66.6,48.9,30.13,SSE,158,2.3,2.3,53,0.00,CLR,,0.12,WeatherDisplay:10.37,2013-02-12 19:57:00,
2013-02-12 15:02:00,66.6,49.4,30.14,SSE,158,3.5,3.5,54,0.00,CLR,,0.12,WeatherDisplay:10.37,2013-02-12 20:02:00,
2013-02-12 15:07:00,66.2,49.1,30.14,SW,225,2.6,2.6,54,0.00,CLR,,0.12,WeatherDisplay:10.37,2013-02-12 20:07:00,
2013-02-12 15:12:00,66.0,49.4,30.13,SW,225,2.6,2.6,55,0.00,CLR,,0.12,WeatherDisplay:10.37,2013-02-12 20:12:00,
2013-02-12 15:17:00,65.8,49.7,30.13,SW,225,2.4,2.4,56,0.00,CLR,,0.12,WeatherDisplay:10.37,2013-02-12 20:17:00,
2013-02-12 15:22:00,65.7,49.5,30.13,SE,135,2.3,2.3,56,0.00,CLR,,0.12,WeatherDisplay:10.37,2013-02-12 20:22:00,
2013-02-12 15:27:00,65.5,49.8,30.13,SE,135,2.3,2.3,57,0.00,CLR,,0.12,WeatherDisplay:10.37,2013-02-12 20:27:00,
2013-02-12 15:32:00,65.5,49.8,30.13,SSW,202,2.3,2.3,57,0.00,CLR,,0.12,WeatherDisplay:10.37,2013-02-12 20:32:00,
2013-02-12 15:37:00,65.3,49.7,30.14,SSE,158,2.3,2.3,57,0.00,CLR,,0.12,WeatherDisplay:10.37,2013-02-12 20:37:00,
2013-02-12 15:42:00,65.1,49.5,30.15,WSW,248,3.5,3.5,57,0.00,CLR,,0.12,WeatherDisplay:10.37,2013-02-12 20:42:00,
2013-02-12 15:47:00,64.8,49.2,30.14,SSE,158,3.5,3.5,57,0.00,CLR,,0.12,WeatherDisplay:10.37,2013-02-12 20:47:00,
2013-02-12 15:52:00,64.6,49.5,30.15,ESE,112,2.4,2.4,58,0.00,CLR,,0.12,WeatherDisplay:10.37,2013-02-12 20:52:00,
2013-02-12 15:57:00,64.4,49.3,30.14,SSE,158,3.5,3.5,58,0.00,CLR,,0.12,WeatherDisplay:10.37,2013-02-12 20:57:00,
2013-02-12 16:02:00,64.4,49.3,30.14,SE,135,2.3,2.4,58,0.00,CLR,,0.12,WeatherDisplay:10.37,2013-02-12 21:02:00,
2013-02-12 16:07:00,64.0,49.4,30.14,South,180,2.3,2.3,59,0.00,CLR,,0.12,WeatherDisplay:10.37,2013-02-12 21:07:00,
2013-02-12 16:12:00,63.7,49.5,30.14,SSW,202,2.3,2.3,60,0.00,SCT,,0.12,WeatherDisplay:10.37,2013-02-12 21:12:00,
2013-02-12 16:17:00,63.7,49.5,30.14,South,180,2.3,2.3,60,0.00,SCT,,0.12,WeatherDisplay:10.37,2013-02-12 21:17:00,
2013-02-12 16:22:00,63.7,49.5,30.13,South,180,1.6,1.6,60,0.00,SCT,,0.12,WeatherDisplay:10.37,2013-02-12 21:22:00,
2013-02-12 16:27:00,63.5,49.4,30.13,SSE,158,2.3,2.3,60,0.00,SCT,,0.12,WeatherDisplay:10.37,2013-02-12 21:27:00,
2013-02-12 16:32:00,63.3,49.2,30.12,ENE,68,2.3,2.3,60,0.00,SCT,,0.12,WeatherDisplay:10.37,2013-02-12 21:32:00,
2013-02-12 16:37:00,63.1,49.5,30.13,SSW,202,2.3,2.3,61,0.00,SCT,,0.12,WeatherDisplay:10.37,2013-02-12 21:37:00,
2013-02-12 16:42:00,63.0,49.7,30.13,SW,225,2.3,2.3,62,0.00,SCT,,0.12,WeatherDisplay:10.37,2013-02-12 21:42:00,
2013-02-12 16:47:00,62.8,49.6,30.13,SSW,202,2.3,2.4,62,0.00,SCT,,0.12,WeatherDisplay:10.37,2013-02-12 21:47:00,
2013-02-12 16:52:00,62.6,49.4,30.13,SSE,158,1.4,1.4,62,0.00,SCT,,0.12,WeatherDisplay:10.37,2013-02-12 21:52:00,
2013-02-12 16:57:00,62.2,49.5,30.11,SSE,158,1.4,1.4,63,0.00,SCT,,0.12,WeatherDisplay:10.37,2013-02-12 21:57:00,
2013-02-12 17:02:00,62.1,49.7,30.11,SSW,202,1.4,1.4,64,0.00,SCT,,0.12,WeatherDisplay:10.37,2013-02-12 22:02:00,
2013-02-12 17:07:00,61.9,49.6,30.12,SSE,158,2.3,2.3,64,0.00,SCT,,0.12,WeatherDisplay:10.37,2013-02-12 22:07:00,
2013-02-12 17:12:00,61.7,49.4,30.12,SSE,158,2.3,2.3,64,0.00,CLR,,0.12,WeatherDisplay:10.37,2013-02-12 22:12:00,
2013-02-12 17:17:00,61.5,49.2,30.13,SSW,202,1.1,1.1,64,0.00,CLR,,0.12,WeatherDisplay:10.37,2013-02-12 22:17:00,
2013-02-12 17:22:00,61.2,49.3,30.12,SW,225,2.3,2.3,65,0.00,CLR,,0.12,WeatherDisplay:10.37,2013-02-12 22:22:00,
2013-02-12 17:27:00,61.0,49.1,30.12,SSE,158,4.6,4.6,65,0.00,CLR,,0.12,WeatherDisplay:10.37,2013-02-12 22:27:00,
2013-02-12 17:32:00,60.8,49.0,30.13,SSW,202,3.5,3.5,65,0.00,CLR,,0.12,WeatherDisplay:10.37,2013-02-12 22:32:00,
2013-02-12 17:37:00,60.4,48.6,30.13,SSE,158,3.5,3.5,65,0.00,CLR,,0.12,WeatherDisplay:10.37,2013-02-12 22:37:00,
2013-02-12 17:42:00,60.3,48.4,30.13,SSW,202,3.5,3.5,65,0.00,CLR,,0.12,WeatherDisplay:10.37,2013-02-12 22:42:00,
2013-02-12 17:47:00,60.1,48.3,30.13,ESE,112,2.3,2.3,65,0.00,CLR,,0.12,WeatherDisplay:10.37,2013-02-12 22:47:00,
2013-02-12 17:52:00,59.9,48.1,30.14,SW,225,2.3,2.3,65,0.00,CLR,,0.12,WeatherDisplay:10.37,2013-02-12 22:52:00,
2013-02-12 17:57:00,59.5,48.2,30.15,SSW,202,2.3,2.3,66,0.00,CLR,,0.12,WeatherDisplay:10.37,2013-02-12 22:57:00,
2013-02-12 18:02:00,59.4,48.0,30.15,SSW,202,2.3,2.3,66,0.00,CLR,,0.12,WeatherDisplay:10.37,2013-02-12 23:02:00,
2013-02-12 18:07:00,59.2,47.8,30.15,South,180,1.1,1.1,66,0.00,CLR,,0.12,WeatherDisplay:10.37,2013-02-12 23:07:00,
2013-02-12 18:12:00,59.0,48.1,30.16,WSW,248,0.7,0.7,67,0.00,CLR,,0.12,WeatherDisplay:10.37,2013-02-12 23:12:00,
2013-02-12 18:17:00,58.8,48.3,30.16,SW,225,0.0,0.7,68,0.00,CLR,,0.12,WeatherDisplay:10.37,2013-02-12 23:17:00,
2013-02-12 18:22:00,58.6,48.1,30.15,WSW,248,0.0,0.0,68,0.00,CLR,,0.12,WeatherDisplay:10.37,2013-02-12 23:22:00,
2013-02-12 18:27:00,58.6,48.1,30.15,South,180,0.0,0.0,68,0.00,CLR,,0.12,WeatherDisplay:10.37,2013-02-12 23:27:00,
2013-02-12 18:32:00,58.5,48.3,30.14,SSW,202,0.0,0.0,69,0.00,CLR,,0.12,WeatherDisplay:10.37,2013-02-12 23:32:00,
2013-02-12 18:37:00,58.3,48.2,30.14,South,180,0.0,0.0,69,0.00,CLR,,0.12,WeatherDisplay:10.37,2013-02-12 23:37:00,
2013-02-12 18:42:00,58.1,48.0,30.13,South,180,0.0,0.0,69,0.00,CLR,,0.12,WeatherDisplay:10.37,2013-02-12 23:42:00,
2013-02-12 18:47:00,57.9,47.8,30.12,ENE,68,1.1,1.1,69,0.00,CLR,,0.12,WeatherDisplay:10.37,2013-02-12 23:47:00,
2013-02-12 18:52:00,57.9,48.2,30.13,SE,135,0.0,0.0,70,0.00,CLR,,0.12,WeatherDisplay:10.37,2013-02-12 23:52:00,
2013-02-12 18:57:00,57.7,48.0,30.13,SE,135,0.2,0.2,70,0.00,CLR,,0.12,WeatherDisplay:10.37,2013-02-12 23:57:00,
2013-02-12 19:02:00,57.6,48.2,30.13,SE,135,0.0,0.0,71,0.00,CLR,,0.12,WeatherDisplay:10.37,2013-02-13 00:02:00,
2013-02-12 19:07:00,57.6,48.2,30.13,SW,225,0.0,0.0,71,0.00,CLR,,0.12,WeatherDisplay:10.37,2013-02-13 00:07:00,
2013-02-12 19:12:00,57.4,48.4,30.13,WSW,248,0.0,0.0,72,0.00,CLR,,0.12,WeatherDisplay:10.37,2013-02-13 00:12:00,
2013-02-12 19:17:00,57.2,48.3,30.13,WSW,248,0.0,0.0,72,0.00,CLR,,0.12,WeatherDisplay:10.37,2013-02-13 00:17:00,
2013-02-12 19:22:00,57.2,48.3,30.12,NNE,22,0.2,0.2,72,0.00,CLR,,0.12,WeatherDisplay:10.37,2013-02-13 00:22:00,
2013-02-12 19:27:00,57.2,48.3,30.12,ENE,68,0.0,0.0,72,0.00,CLR,,0.12,WeatherDisplay:10.37,2013-02-13 00:27:00,
2013-02-12 19:32:00,57.0,48.4,30.13,ENE,68,0.0,0.0,73,0.00,CLR,,0.12,WeatherDisplay:10.37,2013-02-13 00:32:00,
2013-02-12 19:37:00,56.8,48.3,30.13,SW,225,0.7,0.7,73,0.00,CLR,,0.12,WeatherDisplay:10.37,2013-02-13 00:37:00,
2013-02-12 19:42:00,56.8,48.3,30.15,South,180,2.0,2.0,73,0.00,CLR,,0.12,WeatherDisplay:10.37,2013-02-13 00:42:00,
2013-02-12 19:47:00,56.8,48.3,30.15,SSW,202,2.3,2.3,73,0.00,CLR,,0.12,WeatherDisplay:10.37,2013-02-13 00:47:00,
2013-02-12 19:53:00,56.7,48.5,30.14,SW,225,1.1,1.1,74,0.00,CLR,,0.12,WeatherDisplay:10.37,2013-02-13 00:53:00,
2013-02-12 19:58:00,56.7,48.5,30.15,SW,225,0.0,0.0,74,0.00,CLR,,0.12,WeatherDisplay:10.37,2013-02-13 00:58:00,
2013-02-12 20:03:00,56.7,48.5,30.15,WSW,248,0.0,0.0,74,0.00,CLR,,0.12,WeatherDisplay:10.37,2013-02-13 01:03:00,
2013-02-12 20:08:00,56.5,48.6,30.14,SSW,202,0.9,0.9,75,0.00,CLR,,0.12,WeatherDisplay:10.37,2013-02-13 01:08:00,
2013-02-12 20:13:00,56.5,48.6,30.14,South,180,1.1,1.1,75,0.00,BKN,,0.12,WeatherDisplay:10.37,2013-02-13 01:13:00,
2013-02-12 20:18:00,56.5,48.6,30.12,SSE,158,1.1,0.0,75,0.00,BKN,,0.12,WeatherDisplay:10.37,2013-02-13 01:18:00,
2013-02-12 20:23:00,56.5,49.0,30.12,SSW,202,1.1,1.1,76,0.00,BKN,,0.12,WeatherDisplay:10.37,2013-02-13 01:23:00,
2013-02-12 20:28:00,56.5,49.0,30.12,SSW,202,1.1,1.1,76,0.00,BKN,,0.12,WeatherDisplay:10.37,2013-02-13 01:28:00,
2013-02-12 20:33:00,56.3,48.8,30.12,SSW,202,1.1,1.1,76,0.00,BKN,,0.12,WeatherDisplay:10.37,2013-02-13 01:33:00,
2013-02-12 20:38:00,56.3,48.8,30.12,SSW,202,1.1,1.1,76,0.00,BKN,,0.12,WeatherDisplay:10.37,2013-02-13 01:38:00,
2013-02-12 20:43:00,56.3,48.8,30.12,South,180,2.6,2.6,76,0.00,BKN,,0.12,WeatherDisplay:10.37,2013-02-13 01:43:00,
2013-02-12 20:48:00,56.3,48.8,30.12,SW,225,2.3,2.3,76,0.00,BKN,,0.12,WeatherDisplay:10.37,2013-02-13 01:48:00,
2013-02-12 20:53:00,56.3,48.8,30.12,SSE,158,3.8,3.8,76,0.00,BKN,,0.12,WeatherDisplay:10.37,2013-02-13 01:53:00,
2013-02-12 20:58:00,56.1,48.7,30.12,SSW,202,2.3,2.3,76,0.00,BKN,,0.12,WeatherDisplay:10.37,2013-02-13 01:58:00,
2013-02-12 21:03:00,56.1,49.0,30.12,SW,225,2.4,2.4,77,0.00,BKN,,0.12,WeatherDisplay:10.37,2013-02-13 02:03:00,
2013-02-12 21:08:00,56.1,49.0,30.11,SSE,158,1.1,0.0,77,0.00,BKN,,0.12,WeatherDisplay:10.37,2013-02-13 02:08:00,
2013-02-12 21:13:00,56.1,49.0,30.11,WSW,248,1.1,1.1,77,0.00,BKN,,0.12,WeatherDisplay:10.37,2013-02-13 02:13:00,
2013-02-12 21:18:00,56.1,49.0,30.10,SSW,202,0.0,0.0,77,0.00,BKN,,0.12,WeatherDisplay:10.37,2013-02-13 02:18:00,
2013-02-12 21:23:00,56.1,49.4,30.11,SSW,202,1.1,1.1,78,0.00,BKN,,0.12,WeatherDisplay:10.37,2013-02-13 02:23:00,
2013-02-12 21:28:00,56.1,49.4,30.10,ESE,112,1.4,1.4,78,0.00,BKN,,0.12,WeatherDisplay:10.37,2013-02-13 02:28:00,
2013-02-12 21:33:00,56.1,49.4,30.10,SSW,202,0.0,0.0,78,0.00,BKN,,0.12,WeatherDisplay:10.37,2013-02-13 02:33:00,
2013-02-12 21:38:00,56.1,49.4,30.10,WSW,248,1.1,1.1,78,0.00,BKN,,0.12,WeatherDisplay:10.37,2013-02-13 02:38:00,
2013-02-12 21:43:00,56.1,49.4,30.10,SSE,158,1.1,1.1,78,0.00,BKN,,0.12,WeatherDisplay:10.37,2013-02-13 02:43:00,
2013-02-12 21:48:00,55.9,49.2,30.11,SSW,202,1.1,1.1,78,0.00,BKN,,0.12,WeatherDisplay:10.37,2013-02-13 02:48:00,
2013-02-12 21:53:00,55.9,49.5,30.10,South,180,0.0,0.7,79,0.00,BKN,,0.12,WeatherDisplay:10.37,2013-02-13 02:53:00,
2013-02-12 21:58:00,55.9,49.5,30.09,SSE,158,0.0,0.0,79,0.00,BKN,,0.12,WeatherDisplay:10.37,2013-02-13 02:58:00,
2013-02-12 22:03:00,55.8,49.3,30.08,SE,135,0.0,0.0,79,0.01,RA,,0.13,WeatherDisplay:10.37,2013-02-13 03:03:00,
2013-02-12 22:08:00,55.8,49.3,30.09,ENE,68,0.0,0.0,79,0.01,RA,,0.13,WeatherDisplay:10.37,2013-02-13 03:08:00,
2013-02-12 22:13:00,55.8,49.3,30.09,North,0,1.1,1.1,79,0.01,-RA,,0.13,WeatherDisplay:10.37,2013-02-13 03:13:00,
2013-02-12 22:18:00,55.8,49.3,30.09,NNW,338,1.1,0.0,79,0.01,-RA,,0.13,WeatherDisplay:10.37,2013-02-13 03:18:00,
2013-02-12 22:23:00,55.6,49.2,30.09,North,0,1.1,0.0,79,0.01,-RA,,0.13,WeatherDisplay:10.37,2013-02-13 03:23:00,
2013-02-12 22:28:00,55.4,48.7,30.10,NNW,338,0.0,0.0,78,0.01,-RA,,0.13,WeatherDisplay:10.37,2013-02-13 03:28:00,
2013-02-12 22:33:00,55.4,49.0,30.10,NW,315,1.1,0.0,79,0.01,-RA,,0.13,WeatherDisplay:10.37,2013-02-13 03:33:00,
2013-02-12 22:38:00,55.4,49.0,30.11,NW,315,0.0,0.0,79,0.01,-RA,,0.13,WeatherDisplay:10.37,2013-02-13 03:38:00,
2013-02-12 22:43:00,55.2,49.2,30.11,WSW,248,0.5,0.5,80,0.01,-RA,,0.13,WeatherDisplay:10.37,2013-02-13 03:43:00,
2013-02-12 22:48:00,55.2,49.2,30.12,SW,225,1.1,1.1,80,0.02,-RA,,0.14,WeatherDisplay:10.37,2013-02-13 03:48:00,
2013-02-12 22:53:00,55.2,49.2,30.13,SW,225,0.5,0.5,80,0.02,-RA,,0.14,WeatherDisplay:10.37,2013-02-13 03:53:00,
2013-02-12 22:58:00,55.2,49.2,30.14,South,180,1.4,1.4,80,0.03,-RA,,0.15,WeatherDisplay:10.37,2013-02-13 03:58:00,
2013-02-12 23:03:00,55.0,49.3,30.16,SW,225,1.1,1.1,81,0.02,-RA,,0.17,WeatherDisplay:10.37,2013-02-13 04:03:00,
2013-02-12 23:08:00,55.0,49.3,30.17,WSW,248,2.3,2.3,81,0.04,-RA,,0.17,WeatherDisplay:10.37,2013-02-13 04:08:00,
2013-02-12 23:13:00,55.0,49.3,30.17,WNW,292,1.4,1.4,81,0.05,-RA,,0.19,WeatherDisplay:10.37,2013-02-13 04:13:00,
2013-02-12 23:18:00,54.9,48.8,30.18,North,0,2.3,2.3,80,0.06,-RA,,0.19,WeatherDisplay:10.37,2013-02-13 04:18:00,
2013-02-12 23:23:00,54.7,48.6,30.17,SW,225,1.1,1.1,80,0.07,-RA,,0.20,WeatherDisplay:10.37,2013-02-13 04:23:00,
2013-02-12 23:28:00,54.5,48.8,30.17,WNW,292,0.5,0.5,81,0.08,-RA,,0.21,WeatherDisplay:10.37,2013-02-13 04:28:00,
2013-02-12 23:33:00,54.5,48.8,30.17,WNW,292,2.3,2.3,81,0.10,-RA,,0.24,WeatherDisplay:10.37,2013-02-13 04:33:00,
2013-02-12 23:38:00,54.3,48.3,30.16,West,270,1.1,1.1,80,0.10,-RA,,0.24,WeatherDisplay:10.37,2013-02-13 04:38:00,
2013-02-12 23:43:00,54.1,48.1,30.15,SW,225,0.0,0.0,80,0.12,-RA,,0.26,WeatherDisplay:10.37,2013-02-13 04:43:00,
2013-02-12 23:48:00,54.1,48.1,30.14,WSW,248,0.0,0.0,80,0.12,-RA,,0.26,WeatherDisplay:10.37,2013-02-13 04:48:00,
2013-02-12 23:53:00,54.0,48.3,30.15,SW,225,0.0,0.0,81,0.13,-RA,,0.28,WeatherDisplay:10.37,2013-02-13 04:53:00,
2013-02-12 23:58:00,54.0,48.3,30.15,South,180,0.5,0.5,81,0.13,-RA,,0.28,WeatherDisplay:10.37,2013-02-13 04:58:00,